sensor_id;sensor_type;location;lat;lon;timestamp;pressure;altitude;pressure_sealevel;temperature
53412;BMP280;39307;52.870;13.660;2023-04-29T00:00:56;100421.75;;;11.42
53412;BMP280;39307;52.870;13.660;2023-04-29T00:03:22;100419.38;;;11.47
53412;BMP280;39307;52.870;13.660;2023-04-29T00:05:48;100416.38;;;11.50
53412;BMP280;39307;52.870;13.660;2023-04-29T00:08:14;100413.16;;;11.60
53412;BMP280;39307;52.870;13.660;2023-04-29T00:10:41;100414.97;;;11.53
53412;BMP280;39307;52.870;13.660;2023-04-29T00:13:07;100403.84;;;11.52
53412;BMP280;39307;52.870;13.660;2023-04-29T00:15:33;100402.41;;;11.43
53412;BMP280;39307;52.870;13.660;2023-04-29T00:17:59;100394.53;;;11.43
53412;BMP280;39307;52.870;13.660;2023-04-29T00:20:26;100403.44;;;11.48
53412;BMP280;39307;52.870;13.660;2023-04-29T00:22:52;100399.78;;;11.43
53412;BMP280;39307;52.870;13.660;2023-04-29T00:25:18;100390.53;;;11.40
53412;BMP280;39307;52.870;13.660;2023-04-29T00:27:44;100397.69;;;11.32
53412;BMP280;39307;52.870;13.660;2023-04-29T00:30:10;100405.16;;;11.35
53412;BMP280;39307;52.870;13.660;2023-04-29T00:32:37;100405.97;;;11.35
53412;BMP280;39307;52.870;13.660;2023-04-29T00:35:03;100395.75;;;11.40
53412;BMP280;39307;52.870;13.660;2023-04-29T00:37:29;100394.94;;;11.40
53412;BMP280;39307;52.870;13.660;2023-04-29T00:39:56;100398.38;;;11.40
53412;BMP280;39307;52.870;13.660;2023-04-29T00:42:22;100398.38;;;11.40
53412;BMP280;39307;52.870;13.660;2023-04-29T00:44:48;100393.56;;;11.44
53412;BMP280;39307;52.870;13.660;2023-04-29T00:47:15;100402.34;;;11.36
53412;BMP280;39307;52.870;13.660;2023-04-29T00:49:41;100401.81;;;11.41
53412;BMP280;39307;52.870;13.660;2023-04-29T00:52:07;100405.75;;;11.37
53412;BMP280;39307;52.870;13.660;2023-04-29T00:54:36;100392.75;;;11.43
53412;BMP280;39307;52.870;13.660;2023-04-29T00:57:04;100385.88;;;11.42
53412;BMP280;39307;52.870;13.660;2023-04-29T00:59:31;100396.91;;;11.38
53412;BMP280;39307;52.870;13.660;2023-04-29T01:02:02;100399.78;;;11.43
53412;BMP280;39307;52.870;13.660;2023-04-29T01:04:29;100389.06;;;11.38
53412;BMP280;39307;52.870;13.660;2023-04-29T01:06:57;100385.69;;;11.44
53412;BMP280;39307;52.870;13.660;2023-04-29T01:14:45;100357.94;;;11.68
53412;BMP280;39307;52.870;13.660;2023-04-29T01:17:18;100354.06;;;11.58
53412;BMP280;39307;52.870;13.660;2023-04-29T01:19:50;100351.78;;;11.42
53412;BMP280;39307;52.870;13.660;2023-04-29T01:22:17;100351.13;;;11.34
53412;BMP280;39307;52.870;13.660;2023-04-29T01:24:43;100356.34;;;11.27
53412;BMP280;39307;52.870;13.660;2023-04-29T01:27:29;100356.16;;;11.29
53412;BMP280;39307;52.870;13.660;2023-04-29T01:30:22;100362.41;;;11.28
53412;BMP280;39307;52.870;13.660;2023-04-29T01:33:02;100370.66;;;11.25
53412;BMP280;39307;52.870;13.660;2023-04-29T01:38:44;100376.69;;;11.19
53412;BMP280;39307;52.870;13.660;2023-04-29T01:41:22;100369.41;;;11.21
53412;BMP280;39307;52.870;13.660;2023-04-29T01:43:56;100379.91;;;11.21
53412;BMP280;39307;52.870;13.660;2023-04-29T01:46:23;100372.44;;;11.24
53412;BMP280;39307;52.870;13.660;2023-04-29T01:48:53;100382.34;;;11.23
53412;BMP280;39307;52.870;13.660;2023-04-29T01:51:19;100374.06;;;11.19
53412;BMP280;39307;52.870;13.660;2023-04-29T01:53:45;100362.81;;;11.25
53412;BMP280;39307;52.870;13.660;2023-04-29T01:56:12;100351.34;;;11.39
53412;BMP280;39307;52.870;13.660;2023-04-29T01:58:38;100355.84;;;11.51
53412;BMP280;39307;52.870;13.660;2023-04-29T02:01:04;100354.56;;;11.34
53412;BMP280;39307;52.870;13.660;2023-04-29T02:03:30;100368.63;;;11.27
53412;BMP280;39307;52.870;13.660;2023-04-29T02:05:56;100355.16;;;11.30
53412;BMP280;39307;52.870;13.660;2023-04-29T02:08:22;100349.31;;;11.28
53412;BMP280;39307;52.870;13.660;2023-04-29T02:10:56;100346.63;;;11.22
53412;BMP280;39307;52.870;13.660;2023-04-29T02:13:22;100358.78;;;11.29
53412;BMP280;39307;52.870;13.660;2023-04-29T02:15:49;100346.47;;;11.23
53412;BMP280;39307;52.870;13.660;2023-04-29T02:18:15;100345.69;;;11.29
53412;BMP280;39307;52.870;13.660;2023-04-29T02:20:41;100343.47;;;11.32
53412;BMP280;39307;52.870;13.660;2023-04-29T02:23:08;100330.06;;;11.54
53412;BMP280;39307;52.870;13.660;2023-04-29T02:25:34;100325.47;;;11.69
53412;BMP280;39307;52.870;13.660;2023-04-29T02:28:00;100331.78;;;11.28
53412;BMP280;39307;52.870;13.660;2023-04-29T02:30:26;100345.59;;;11.10
53412;BMP280;39307;52.870;13.660;2023-04-29T02:32:53;100355.22;;;11.03
53412;BMP280;39307;52.870;13.660;2023-04-29T02:35:19;100349.38;;;11.01
53412;BMP280;39307;52.870;13.660;2023-04-29T02:37:45;100347.56;;;11.01
53412;BMP280;39307;52.870;13.660;2023-04-29T02:40:11;100347.97;;;10.98
53412;BMP280;39307;52.870;13.660;2023-04-29T02:42:38;100341.16;;;11.04
53412;BMP280;39307;52.870;13.660;2023-04-29T02:45:04;100354.81;;;10.99
53412;BMP280;39307;52.870;13.660;2023-04-29T02:47:31;100358.44;;;10.98
53412;BMP280;39307;52.870;13.660;2023-04-29T02:49:57;100348.13;;;10.97
53412;BMP280;39307;52.870;13.660;2023-04-29T02:52:23;100347.16;;;10.98
53412;BMP280;39307;52.870;13.660;2023-04-29T02:54:49;100340.91;;;10.99
53412;BMP280;39307;52.870;13.660;2023-04-29T02:57:15;100341.72;;;10.99
53412;BMP280;39307;52.870;13.660;2023-04-29T02:59:42;100344.72;;;10.96
53412;BMP280;39307;52.870;13.660;2023-04-29T03:02:08;100336.66;;;10.92
53412;BMP280;39307;52.870;13.660;2023-04-29T03:04:34;100329.63;;;10.98
53412;BMP280;39307;52.870;13.660;2023-04-29T03:07:00;100324.38;;;10.98
53412;BMP280;39307;52.870;13.660;2023-04-29T03:09:26;100325.38;;;10.97
53412;BMP280;39307;52.870;13.660;2023-04-29T03:11:53;100320.56;;;11.01
53412;BMP280;39307;52.870;13.660;2023-04-29T03:14:19;100320.97;;;10.98
53412;BMP280;39307;52.870;13.660;2023-04-29T03:16:45;100320.75;;;10.99
53412;BMP280;39307;52.870;13.660;2023-04-29T03:19:11;100320.75;;;10.99
53412;BMP280;39307;52.870;13.660;2023-04-29T03:21:37;100336.06;;;10.96
53412;BMP280;39307;52.870;13.660;2023-04-29T03:24:04;100316.53;;;10.98
53412;BMP280;39307;52.870;13.660;2023-04-29T03:26:30;100316.31;;;11.00
53412;BMP280;39307;52.870;13.660;2023-04-29T03:28:56;100315.72;;;10.98
53412;BMP280;39307;52.870;13.660;2023-04-29T03:31:23;100330.78;;;10.90
53412;BMP280;39307;52.870;13.660;2023-04-29T03:33:49;100328.34;;;10.88
53412;BMP280;39307;52.870;13.660;2023-04-29T03:36:15;100331.19;;;10.87
53412;BMP280;39307;52.870;13.660;2023-04-29T03:38:41;100326.56;;;10.89
53412;BMP280;39307;52.870;13.660;2023-04-29T03:41:08;100332.78;;;10.88
53412;BMP280;39307;52.870;13.660;2023-04-29T03:43:34;100339.66;;;10.89
53412;BMP280;39307;52.870;13.660;2023-04-29T03:46:00;100331.22;;;10.99
53412;BMP280;39307;52.870;13.660;2023-04-29T03:48:26;100337.06;;;10.95
53412;BMP280;39307;52.870;13.660;2023-04-29T03:50:52;100345.53;;;10.97
53412;BMP280;39307;52.870;13.660;2023-04-29T03:53:19;100342.69;;;10.92
53412;BMP280;39307;52.870;13.660;2023-04-29T03:55:45;100336.81;;;10.90
53412;BMP280;39307;52.870;13.660;2023-04-29T03:58:11;100329.19;;;10.89
53412;BMP280;39307;52.870;13.660;2023-04-29T04:00:37;100334.34;;;10.82
53412;BMP280;39307;52.870;13.660;2023-04-29T04:03:04;100329.34;;;10.81
53412;BMP280;39307;52.870;13.660;2023-04-29T04:05:30;100337.59;;;10.84
53412;BMP280;39307;52.870;13.660;2023-04-29T04:07:56;100333.00;;;10.86
53412;BMP280;39307;52.870;13.660;2023-04-29T04:10:23;100337.63;;;10.91
53412;BMP280;39307;52.870;13.660;2023-04-29T04:12:49;100343.28;;;10.94
53412;BMP280;39307;52.870;13.660;2023-04-29T04:15:15;100324.16;;;10.94
53412;BMP280;39307;52.870;13.660;2023-04-29T04:17:42;100337.88;;;10.95
53412;BMP280;39307;52.870;13.660;2023-04-29T04:20:08;100336.06;;;10.96
53412;BMP280;39307;52.870;13.660;2023-04-29T04:22:34;100344.53;;;10.98
53412;BMP280;39307;52.870;13.660;2023-04-29T04:25:01;100329.81;;;10.97
53412;BMP280;39307;52.870;13.660;2023-04-29T04:27:27;100345.09;;;10.94
53412;BMP280;39307;52.870;13.660;2023-04-29T04:29:53;100335.03;;;10.97
53412;BMP280;39307;52.870;13.660;2023-04-29T04:32:21;100331.22;;;10.99
53412;BMP280;39307;52.870;13.660;2023-04-29T04:34:48;100334.47;;;11.01
53412;BMP280;39307;52.870;13.660;2023-04-29T04:37:14;100331.88;;;11.08
53412;BMP280;39307;52.870;13.660;2023-04-29T04:39:41;100338.31;;;11.05
53412;BMP280;39307;52.870;13.660;2023-04-29T04:42:07;100333.84;;;10.99
53412;BMP280;39307;52.870;13.660;2023-04-29T04:44:33;100324.19;;;11.00
53412;BMP280;39307;52.870;13.660;2023-04-29T04:46:59;100332.91;;;11.07
53412;BMP280;39307;52.870;13.660;2023-04-29T04:49:26;100335.31;;;11.08
53412;BMP280;39307;52.870;13.660;2023-04-29T04:51:54;100337.78;;;11.16
53412;BMP280;39307;52.870;13.660;2023-04-29T04:54:22;100337.53;;;11.11
53412;BMP280;39307;52.870;13.660;2023-04-29T04:56:48;100338.94;;;11.07
53412;BMP280;39307;52.870;13.660;2023-04-29T04:59:15;100353.66;;;11.08
53412;BMP280;39307;52.870;13.660;2023-04-29T05:01:41;100345.59;;;11.10
53412;BMP280;39307;52.870;13.660;2023-04-29T05:04:07;100343.59;;;11.18
53412;BMP280;39307;52.870;13.660;2023-04-29T05:06:33;100346.84;;;11.20
53412;BMP280;39307;52.870;13.660;2023-04-29T05:09:00;100340.81;;;11.26
53412;BMP280;39307;52.870;13.660;2023-04-29T05:11:26;100344.47;;;11.25
53412;BMP280;39307;52.870;13.660;2023-04-29T05:13:52;100345.44;;;11.24
53412;BMP280;39307;52.870;13.660;2023-04-29T05:16:18;100344.88;;;11.28
53412;BMP280;39307;52.870;13.660;2023-04-29T05:18:44;100354.50;;;11.22
53412;BMP280;39307;52.870;13.660;2023-04-29T05:21:11;100349.69;;;11.25
53412;BMP280;39307;52.870;13.660;2023-04-29T05:23:38;100354.31;;;11.23
53412;BMP280;39307;52.870;13.660;2023-04-29T05:26:04;100351.50;;;11.24
53412;BMP280;39307;52.870;13.660;2023-04-29T05:28:30;100354.97;;;11.31
53412;BMP280;39307;52.870;13.660;2023-04-29T05:30:56;100359.41;;;11.31
53412;BMP280;39307;52.870;13.660;2023-04-29T05:33:22;100355.94;;;11.30
53412;BMP280;39307;52.870;13.660;2023-04-29T05:35:49;100356.34;;;11.34
53412;BMP280;39307;52.870;13.660;2023-04-29T05:38:15;100362.22;;;11.36
53412;BMP280;39307;52.870;13.660;2023-04-29T05:40:41;100364.03;;;11.35
53412;BMP280;39307;52.870;13.660;2023-04-29T05:43:07;100362.22;;;11.29
53412;BMP280;39307;52.870;13.660;2023-04-29T05:45:33;100368.88;;;11.32
53412;BMP280;39307;52.870;13.660;2023-04-29T05:47:59;100371.84;;;11.23
53412;BMP280;39307;52.870;13.660;2023-04-29T05:50:26;100371.66;;;11.24
53412;BMP280;39307;52.870;13.660;2023-04-29T05:52:52;100368.44;;;11.22
53412;BMP280;39307;52.870;13.660;2023-04-29T05:55:18;100375.66;;;11.20
53412;BMP280;39307;52.870;13.660;2023-04-29T05:57:45;100385.13;;;11.21
53412;BMP280;39307;52.870;13.660;2023-04-29T06:00:11;100379.72;;;11.23
53412;BMP280;39307;52.870;13.660;2023-04-29T06:02:37;100378.94;;;11.28
53412;BMP280;39307;52.870;13.660;2023-04-29T06:05:04;100382.81;;;11.39
53412;BMP280;39307;52.870;13.660;2023-04-29T06:07:30;100378.56;;;11.38
53412;BMP280;39307;52.870;13.660;2023-04-29T06:09:56;100385.59;;;11.31
53412;BMP280;39307;52.870;13.660;2023-04-29T06:12:23;100391.66;;;11.31
53412;BMP280;39307;52.870;13.660;2023-04-29T06:14:49;100392.84;;;11.29
53412;BMP280;39307;52.870;13.660;2023-04-29T06:17:15;100400.91;;;11.34
53412;BMP280;39307;52.870;13.660;2023-04-29T06:19:42;100399.69;;;11.30
53412;BMP280;39307;52.870;13.660;2023-04-29T06:22:08;100407.38;;;11.31
53412;BMP280;39307;52.870;13.660;2023-04-29T06:24:34;100403.13;;;11.30
53412;BMP280;39307;52.870;13.660;2023-04-29T06:27:00;100409.19;;;11.31
53412;BMP280;39307;52.870;13.660;2023-04-29T06:29:26;100413.84;;;11.35
53412;BMP280;39307;52.870;13.660;2023-04-29T06:31:53;100414.22;;;11.32
53412;BMP280;39307;52.870;13.660;2023-04-29T06:34:19;100415.44;;;11.36
53412;BMP280;39307;52.870;13.660;2023-04-29T06:36:45;100420.91;;;11.35
53412;BMP280;39307;52.870;13.660;2023-04-29T06:39:11;100421.06;;;11.33
53412;BMP280;39307;52.870;13.660;2023-04-29T06:41:37;100430.81;;;11.39
53412;BMP280;39307;52.870;13.660;2023-04-29T06:44:04;100434.41;;;11.38
53412;BMP280;39307;52.870;13.660;2023-04-29T06:46:30;100428.19;;;11.39
53412;BMP280;39307;52.870;13.660;2023-04-29T06:48:56;100429.19;;;11.38
53412;BMP280;39307;52.870;13.660;2023-04-29T06:51:22;100438.84;;;11.38
53412;BMP280;39307;52.870;13.660;2023-04-29T06:53:49;100438.03;;;11.37
53412;BMP280;39307;52.870;13.660;2023-04-29T06:56:15;100435.06;;;11.40
53412;BMP280;39307;52.870;13.660;2023-04-29T06:58:41;100435.69;;;11.49
53412;BMP280;39307;52.870;13.660;2023-04-29T07:01:07;100444.34;;;11.43
53412;BMP280;39307;52.870;13.660;2023-04-29T07:03:33;100444.72;;;11.40
53412;BMP280;39307;52.870;13.660;2023-04-29T07:06:00;100445.69;;;11.39
53412;BMP280;39307;52.870;13.660;2023-04-29T07:08:26;100456.25;;;11.45
53412;BMP280;39307;52.870;13.660;2023-04-29T07:10:56;100452.66;;;11.53
53412;BMP280;39307;52.870;13.660;2023-04-29T07:13:23;100451.81;;;11.46
53412;BMP280;39307;52.870;13.660;2023-04-29T07:15:49;100461.69;;;11.44
53412;BMP280;39307;52.870;13.660;2023-04-29T07:18:16;100462.69;;;11.43
53412;BMP280;39307;52.870;13.660;2023-04-29T07:20:42;100460.28;;;11.41
53412;BMP280;39307;52.870;13.660;2023-04-29T07:23:08;100467.31;;;11.41
53412;BMP280;39307;52.870;13.660;2023-04-29T07:25:34;100468.88;;;11.35
53412;BMP280;39307;52.870;13.660;2023-04-29T07:28:01;100474.75;;;11.37
53412;BMP280;39307;52.870;13.660;2023-04-29T07:30:27;100476.41;;;11.45
53412;BMP280;39307;52.870;13.660;2023-04-29T07:32:53;100478.66;;;11.48
53412;BMP280;39307;52.870;13.660;2023-04-29T07:35:19;100482.88;;;11.49
53412;BMP280;39307;52.870;13.660;2023-04-29T07:37:45;100482.50;;;11.52
53412;BMP280;39307;52.870;13.660;2023-04-29T07:40:12;100487.94;;;11.50
53412;BMP280;39307;52.870;13.660;2023-04-29T07:42:38;100491.72;;;11.41
53412;BMP280;39307;52.870;13.660;2023-04-29T07:45:05;100492.56;;;11.48
53412;BMP280;39307;52.870;13.660;2023-04-29T07:47:31;100496.97;;;11.41
53412;BMP280;39307;52.870;13.660;2023-04-29T07:49:58;100495.72;;;11.37
53412;BMP280;39307;52.870;13.660;2023-04-29T07:52:24;100511.81;;;11.34
53412;BMP280;39307;52.870;13.660;2023-04-29T07:54:50;100520.22;;;11.30
53412;BMP280;39307;52.870;13.660;2023-04-29T07:57:16;100516.13;;;11.42
53412;BMP280;39307;52.870;13.660;2023-04-29T07:59:42;100511.50;;;11.44
53412;BMP280;39307;52.870;13.660;2023-04-29T08:02:09;100508.47;;;11.40
53412;BMP280;39307;52.870;13.660;2023-04-29T08:04:38;100516.75;;;11.44
53412;BMP280;39307;52.870;13.660;2023-04-29T08:07:05;100511.50;;;11.44
53412;BMP280;39307;52.870;13.660;2023-04-29T08:09:31;100520.06;;;11.58
53412;BMP280;39307;52.870;13.660;2023-04-29T08:11:57;100526.66;;;11.54
53412;BMP280;39307;52.870;13.660;2023-04-29T08:14:23;100539.22;;;11.59
53412;BMP280;39307;52.870;13.660;2023-04-29T08:16:49;100544.28;;;11.67
53412;BMP280;39307;52.870;13.660;2023-04-29T08:19:16;100545.03;;;11.54
53412;BMP280;39307;52.870;13.660;2023-04-29T08:21:45;100546.28;;;11.58
53412;BMP280;39307;52.870;13.660;2023-04-29T08:24:12;100554.13;;;11.58
53412;BMP280;39307;52.870;13.660;2023-04-29T08:26:39;100543.44;;;11.60
53412;BMP280;39307;52.870;13.660;2023-04-29T08:29:05;100553.09;;;11.53
53412;BMP280;39307;52.870;13.660;2023-04-29T08:31:30;100556.88;;;11.44
53412;BMP280;39307;52.870;13.660;2023-04-29T08:34:02;100564.75;;;11.51
53412;BMP280;39307;52.870;13.660;2023-04-29T08:36:28;100566.88;;;11.61
53412;BMP280;39307;52.870;13.660;2023-04-29T08:38:55;100579.53;;;11.58
53412;BMP280;39307;52.870;13.660;2023-04-29T08:41:21;100587.00;;;11.61
53412;BMP280;39307;52.870;13.660;2023-04-29T08:43:47;100589.88;;;11.66
53412;BMP280;39307;52.870;13.660;2023-04-29T08:46:13;100592.25;;;11.61
53412;BMP280;39307;52.870;13.660;2023-04-29T08:48:40;100606.78;;;11.63
53412;BMP280;39307;52.870;13.660;2023-04-29T08:51:07;100607.63;;;11.70
53412;BMP280;39307;52.870;13.660;2023-04-29T08:53:35;100610.84;;;11.66
53412;BMP280;39307;52.870;13.660;2023-04-29T08:56:07;100614.63;;;11.57
53412;BMP280;39307;52.870;13.660;2023-04-29T08:58:38;100621.16;;;11.40
53412;BMP280;39307;52.870;13.660;2023-04-29T09:01:08;100622.66;;;11.28
53412;BMP280;39307;52.870;13.660;2023-04-29T09:03:56;100622.69;;;11.35
53412;BMP280;39307;52.870;13.660;2023-04-29T09:06:26;100637.69;;;11.41
53412;BMP280;39307;52.870;13.660;2023-04-29T09:08:53;100626.81;;;11.44
53412;BMP280;39307;52.870;13.660;2023-04-29T09:11:19;100635.50;;;11.44
53412;BMP280;39307;52.870;13.660;2023-04-29T09:13:46;100637.09;;;11.45
53412;BMP280;39307;52.870;13.660;2023-04-29T09:16:12;100640.53;;;11.46
53412;BMP280;39307;52.870;13.660;2023-04-29T09:18:45;100626.25;;;11.48
53412;BMP280;39307;52.870;13.660;2023-04-29T09:21:18;100650.22;;;11.45
53412;BMP280;39307;52.870;13.660;2023-04-29T09:23:46;100648.59;;;11.44
53412;BMP280;39307;52.870;13.660;2023-04-29T09:26:13;100650.09;;;11.53
53412;BMP280;39307;52.870;13.660;2023-04-29T09:28:39;100650.69;;;11.55
53412;BMP280;39307;52.870;13.660;2023-04-29T09:31:06;100660.00;;;11.57
53412;BMP280;39307;52.870;13.660;2023-04-29T09:33:51;100656.38;;;11.58
53412;BMP280;39307;52.870;13.660;2023-04-29T09:36:44;100666.88;;;11.58
53412;BMP280;39307;52.870;13.660;2023-04-29T09:39:13;100671.16;;;11.66
53412;BMP280;39307;52.870;13.660;2023-04-29T09:41:41;100665.91;;;11.66
53412;BMP280;39307;52.870;13.660;2023-04-29T09:44:08;100670.56;;;11.70
53412;BMP280;39307;52.870;13.660;2023-04-29T09:46:35;100663.75;;;11.76
53412;BMP280;39307;52.870;13.660;2023-04-29T09:49:02;100670.63;;;11.77
53412;BMP280;39307;52.870;13.660;2023-04-29T09:51:29;100683.09;;;11.68
53412;BMP280;39307;52.870;13.660;2023-04-29T09:53:55;100688.75;;;11.72
53412;BMP280;39307;52.870;13.660;2023-04-29T09:56:22;100685.31;;;11.71
53412;BMP280;39307;52.870;13.660;2023-04-29T09:58:48;100688.75;;;11.72
53412;BMP280;39307;52.870;13.660;2023-04-29T10:01:14;100698.47;;;11.78
53412;BMP280;39307;52.870;13.660;2023-04-29T10:03:42;100696.53;;;11.86
53412;BMP280;39307;52.870;13.660;2023-04-29T10:06:08;100695.28;;;11.82
53412;BMP280;39307;52.870;13.660;2023-04-29T10:08:34;100705.28;;;11.99
53412;BMP280;39307;52.870;13.660;2023-04-29T10:11:02;100695.44;;;12.01
53412;BMP280;39307;52.870;13.660;2023-04-29T10:13:29;100702.59;;;12.20
53412;BMP280;39307;52.870;13.660;2023-04-29T10:16:26;100712.09;;;12.21
53412;BMP280;39307;52.870;13.660;2023-04-29T10:18:55;100711.16;;;12.35
53412;BMP280;39307;52.870;13.660;2023-04-29T10:21:28;100707.53;;;12.36
53412;BMP280;39307;52.870;13.660;2023-04-29T10:23:56;100708.63;;;12.54
53412;BMP280;39307;52.870;13.660;2023-04-29T10:26:27;100700.19;;;12.58
53412;BMP280;39307;52.870;13.660;2023-04-29T10:28:55;100696.00;;;12.76
53412;BMP280;39307;52.870;13.660;2023-04-29T10:31:21;100703.56;;;12.98
53412;BMP280;39307;52.870;13.660;2023-04-29T10:33:54;100700.34;;;13.16
53412;BMP280;39307;52.870;13.660;2023-04-29T10:36:21;100692.13;;;13.63
53412;BMP280;39307;52.870;13.660;2023-04-29T10:38:52;100707.09;;;13.76
53412;BMP280;39307;52.870;13.660;2023-04-29T10:41:21;100706.50;;;13.80
53412;BMP280;39307;52.870;13.660;2023-04-29T10:43:48;100716.41;;;13.65
53412;BMP280;39307;52.870;13.660;2023-04-29T10:46:21;100710.13;;;13.60
53412;BMP280;39307;52.870;13.660;2023-04-29T10:48:49;100710.34;;;13.58
53412;BMP280;39307;52.870;13.660;2023-04-29T10:51:29;100709.31;;;13.72
53412;BMP280;39307;52.870;13.660;2023-04-29T10:54:11;100712.34;;;13.95
53412;BMP280;39307;52.870;13.660;2023-04-29T10:56:41;100702.66;;;14.08
53412;BMP280;39307;52.870;13.660;2023-04-29T10:59:12;100715.00;;;14.14
53412;BMP280;39307;52.870;13.660;2023-04-29T11:01:46;100712.34;;;14.14
53412;BMP280;39307;52.870;13.660;2023-04-29T11:04:13;100721.03;;;14.21
53412;BMP280;39307;52.870;13.660;2023-04-29T11:06:42;100717.41;;;14.15
53412;BMP280;39307;52.870;13.660;2023-04-29T11:09:20;100713.34;;;14.07
53412;BMP280;39307;52.870;13.660;2023-04-29T11:14:33;100718.22;;;14.22
53412;BMP280;39307;52.870;13.660;2023-04-29T11:17:07;100727.09;;;14.28
53412;BMP280;39307;52.870;13.660;2023-04-29T11:19:36;100718.97;;;14.42
53412;BMP280;39307;52.870;13.660;2023-04-29T11:25:05;100733.31;;;14.46
53412;BMP280;39307;52.870;13.660;2023-04-29T11:27:37;100738.19;;;14.55
53412;BMP280;39307;52.870;13.660;2023-04-29T11:30:04;100739.97;;;14.55
53412;BMP280;39307;52.870;13.660;2023-04-29T11:32:34;100740.16;;;14.66
53412;BMP280;39307;52.870;13.660;2023-04-29T11:35:14;100739.38;;;14.59
53412;BMP280;39307;52.870;13.660;2023-04-29T11:37:42;100744.28;;;14.43
53412;BMP280;39307;52.870;13.660;2023-04-29T11:40:09;100749.97;;;14.34
53412;BMP280;39307;52.870;13.660;2023-04-29T11:42:44;100746.34;;;14.22
53412;BMP280;39307;52.870;13.660;2023-04-29T11:45:10;100759.94;;;14.19
53412;BMP280;39307;52.870;13.660;2023-04-29T11:47:40;100759.34;;;14.11
53412;BMP280;39307;52.870;13.660;2023-04-29T11:50:10;100763.81;;;14.10
53412;BMP280;39307;52.870;13.660;2023-04-29T11:52:37;100769.88;;;14.04
53412;BMP280;39307;52.870;13.660;2023-04-29T11:55:04;100770.47;;;14.06
53412;BMP280;39307;52.870;13.660;2023-04-29T11:57:31;100780.41;;;13.98
53412;BMP280;39307;52.870;13.660;2023-04-29T11:59:58;100780.59;;;13.96
53412;BMP280;39307;52.870;13.660;2023-04-29T12:02:31;100786.44;;;13.92
53412;BMP280;39307;52.870;13.660;2023-04-29T12:04:58;100786.66;;;13.84
53412;BMP280;39307;52.870;13.660;2023-04-29T12:07:24;100785.03;;;13.89
53412;BMP280;39307;52.870;13.660;2023-04-29T12:09:50;100789.69;;;13.87
53412;BMP280;39307;52.870;13.660;2023-04-29T12:12:17;100789.50;;;13.95
53412;BMP280;39307;52.870;13.660;2023-04-29T12:14:44;100786.06;;;13.95
53412;BMP280;39307;52.870;13.660;2023-04-29T12:17:10;100795.59;;;13.96
53412;BMP280;39307;52.870;13.660;2023-04-29T12:19:38;100798.84;;;13.98
53412;BMP280;39307;52.870;13.660;2023-04-29T12:22:04;100805.69;;;13.92
53412;BMP280;39307;52.870;13.660;2023-04-29T12:24:39;100813.22;;;14.02
53412;BMP280;39307;52.870;13.660;2023-04-29T12:27:09;100807.13;;;14.14
53412;BMP280;39307;52.870;13.660;2023-04-29T12:29:36;100815.00;;;14.27
53412;BMP280;39307;52.870;13.660;2023-04-29T12:32:03;100808.53;;;14.23
53412;BMP280;39307;52.870;13.660;2023-04-29T12:34:30;100819.25;;;14.41
53412;BMP280;39307;52.870;13.660;2023-04-29T12:37:00;100822.09;;;14.26
53412;BMP280;39307;52.870;13.660;2023-04-29T12:39:28;100828.59;;;14.24
53412;BMP280;39307;52.870;13.660;2023-04-29T12:41:58;100832.03;;;14.24
53412;BMP280;39307;52.870;13.660;2023-04-29T12:44:25;100824.75;;;14.26
53412;BMP280;39307;52.870;13.660;2023-04-29T12:46:51;100829.59;;;14.36
53412;BMP280;39307;52.870;13.660;2023-04-29T12:49:18;100820.84;;;14.48
53412;BMP280;39307;52.870;13.660;2023-04-29T12:51:44;100822.28;;;14.57
53412;BMP280;39307;52.870;13.660;2023-04-29T12:54:10;100834.63;;;14.56
53412;BMP280;39307;52.870;13.660;2023-04-29T12:56:37;100830.97;;;14.57
53412;BMP280;39307;52.870;13.660;2023-04-29T12:59:10;100832.19;;;14.61
53412;BMP280;39307;52.870;13.660;2023-04-29T13:01:37;100832.00;;;14.63
53412;BMP280;39307;52.870;13.660;2023-04-29T13:04:03;100836.63;;;14.67
53412;BMP280;39307;52.870;13.660;2023-04-29T13:06:30;100836.84;;;14.59
53412;BMP280;39307;52.870;13.660;2023-04-29T13:08:56;100831.97;;;14.69
53412;BMP280;39307;52.870;13.660;2023-04-29T13:11:23;100830.75;;;14.72
53412;BMP280;39307;52.870;13.660;2023-04-29T13:13:49;100831.56;;;14.72
53412;BMP280;39307;52.870;13.660;2023-04-29T13:16:16;100833.16;;;14.73
53412;BMP280;39307;52.870;13.660;2023-04-29T13:18:42;100834.56;;;14.82
53412;BMP280;39307;52.870;13.660;2023-04-29T13:21:08;100838.44;;;14.67
53412;BMP280;39307;52.870;13.660;2023-04-29T13:23:34;100850.22;;;14.64
53412;BMP280;39307;52.870;13.660;2023-04-29T13:26:00;100839.28;;;14.61
53412;BMP280;39307;52.870;13.660;2023-04-29T13:28:27;100845.38;;;14.68
53412;BMP280;39307;52.870;13.660;2023-04-29T13:30:53;100852.59;;;14.85
53412;BMP280;39307;52.870;13.660;2023-04-29T13:33:19;100855.09;;;14.73
53412;BMP280;39307;52.870;13.660;2023-04-29T13:35:46;100858.94;;;14.71
53412;BMP280;39307;52.870;13.660;2023-04-29T13:38:13;100858.13;;;14.77
53412;BMP280;39307;52.870;13.660;2023-04-29T13:40:39;100855.19;;;14.98
53412;BMP280;39307;52.870;13.660;2023-04-29T13:43:05;100855.19;;;14.98
53412;BMP280;39307;52.870;13.660;2023-04-29T13:45:32;100858.25;;;14.95
53412;BMP280;39307;52.870;13.660;2023-04-29T13:47:58;100859.88;;;15.02
53412;BMP280;39307;52.870;13.660;2023-04-29T13:50:25;100865.16;;;14.96
53412;BMP280;39307;52.870;13.660;2023-04-29T13:52:51;100861.09;;;14.93
53412;BMP280;39307;52.870;13.660;2023-04-29T13:55:27;100858.00;;;15.15
53412;BMP280;39307;52.870;13.660;2023-04-29T13:57:53;100857.41;;;15.00
53412;BMP280;39307;52.870;13.660;2023-04-29T14:00:19;100865.91;;;15.15